sensor_id;sensor_type;location;lat;lon;timestamp;P1;durP1;ratioP1;P2;durP2;ratioP2
77204;SDS011;67992;46.618;18.850;2023-03-26T00:01:13;0.50;;;0.50;;
77204;SDS011;67992;46.618;18.850;2023-03-26T00:03:45;0.25;;;0.25;;
77204;SDS011;67992;46.618;18.850;2023-03-26T00:06:17;0.60;;;0.60;;
77204;SDS011;67992;46.618;18.850;2023-03-26T00:08:45;0.68;;;0.57;;
77204;SDS011;67992;46.618;18.850;2023-03-26T00:11:12;0.85;;;0.63;;
77204;SDS011;67992;46.618;18.850;2023-03-26T00:13:45;0.28;;;0.28;;
77204;SDS011;67992;46.618;18.850;2023-03-26T00:16:12;0.50;;;0.50;;
77204;SDS011;67992;46.618;18.850;2023-03-26T00:18:39;0.35;;;0.35;;
77204;SDS011;67992;46.618;18.850;2023-03-26T00:21:07;0.68;;;0.57;;
77204;SDS011;67992;46.618;18.850;2023-03-26T00:23:43;0.68;;;0.68;;
77204;SDS011;67992;46.618;18.850;2023-03-26T00:26:16;0.70;;;0.70;;
77204;SDS011;67992;46.618;18.850;2023-03-26T00:28:44;0.70;;;0.60;;
77204;SDS011;67992;46.618;18.850;2023-03-26T00:31:16;1.42;;;0.88;;
77204;SDS011;67992;46.618;18.850;2023-03-26T00:33:42;0.90;;;0.90;;
77204;SDS011;67992;46.618;18.850;2023-03-26T00:36:09;0.40;;;0.35;;
77204;SDS011;67992;46.618;18.850;2023-03-26T00:38:41;0.40;;;0.30;;
77204;SDS011;67992;46.618;18.850;2023-03-26T00:43:47;0.60;;;0.60;;
77204;SDS011;67992;46.618;18.850;2023-03-26T00:46:14;0.63;;;0.60;;
77204;SDS011;67992;46.618;18.850;2023-03-26T00:48:42;0.52;;;0.52;;
77204;SDS011;67992;46.618;18.850;2023-03-26T00:51:08;0.65;;;0.60;;
77204;SDS011;67992;46.618;18.850;2023-03-26T00:53:42;0.50;;;0.40;;
77204;SDS011;67992;46.618;18.850;2023-03-26T00:56:11;0.80;;;0.55;;
77204;SDS011;67992;46.618;18.850;2023-03-26T00:58:40;0.80;;;0.65;;
77204;SDS011;67992;46.618;18.850;2023-03-26T01:01:11;0.70;;;0.70;;
77204;SDS011;67992;46.618;18.850;2023-03-26T01:03:40;0.50;;;0.50;;
77204;SDS011;67992;46.618;18.850;2023-03-26T01:06:11;1.27;;;0.80;;
77204;SDS011;67992;46.618;18.850;2023-03-26T01:08:44;0.90;;;0.60;;
77204;SDS011;67992;46.618;18.850;2023-03-26T01:13:43;0.40;;;0.38;;
77204;SDS011;67992;46.618;18.850;2023-03-26T01:16:38;0.65;;;0.60;;
77204;SDS011;67992;46.618;18.850;2023-03-26T01:19:26;0.50;;;0.45;;
77204;SDS011;67992;46.618;18.850;2023-03-26T01:22:06;0.50;;;0.50;;
77204;SDS011;67992;46.618;18.850;2023-03-26T01:24:35;0.68;;;0.60;;
77204;SDS011;67992;46.618;18.850;2023-03-26T01:27:13;0.40;;;0.38;;
77204;SDS011;67992;46.618;18.850;2023-03-26T01:38:18;0.50;;;0.50;;
77204;SDS011;67992;46.618;18.850;2023-03-26T01:41:06;0.82;;;0.70;;
77204;SDS011;67992;46.618;18.850;2023-03-26T01:49:04;0.65;;;0.63;;
77204;SDS011;67992;46.618;18.850;2023-03-26T01:51:34;0.65;;;0.45;;
77204;SDS011;67992;46.618;18.850;2023-03-26T01:54:07;0.63;;;0.47;;
77204;SDS011;67992;46.618;18.850;2023-03-26T02:04:54;0.55;;;0.50;;
77204;SDS011;67992;46.618;18.850;2023-03-26T02:10:12;0.73;;;0.60;;
77204;SDS011;67992;46.618;18.850;2023-03-26T02:12:51;0.40;;;0.38;;
77204;SDS011;67992;46.618;18.850;2023-03-26T02:15:17;0.93;;;0.68;;
77204;SDS011;67992;46.618;18.850;2023-03-26T02:17:43;0.60;;;0.60;;
77204;SDS011;67992;46.618;18.850;2023-03-26T02:20:12;0.90;;;0.80;;
77204;SDS011;67992;46.618;18.850;2023-03-26T02:22:45;0.77;;;0.77;;
77204;SDS011;67992;46.618;18.850;2023-03-26T02:25:16;1.10;;;0.80;;
77204;SDS011;67992;46.618;18.850;2023-03-26T02:27:45;0.63;;;0.60;;
77204;SDS011;67992;46.618;18.850;2023-03-26T02:30:16;0.93;;;0.82;;
77204;SDS011;67992;46.618;18.850;2023-03-26T02:32:56;0.55;;;0.55;;
77204;SDS011;67992;46.618;18.850;2023-03-26T02:37:54;0.95;;;0.85;;
77204;SDS011;67992;46.618;18.850;2023-03-26T02:40:19;1.45;;;0.98;;
77204;SDS011;67992;46.618;18.850;2023-03-26T02:42:46;0.73;;;0.68;;
77204;SDS011;67992;46.618;18.850;2023-03-26T02:45:15;0.88;;;0.55;;
77204;SDS011;67992;46.618;18.850;2023-03-26T02:47:46;0.73;;;0.65;;
77204;SDS011;67992;46.618;18.850;2023-03-26T02:50:15;0.90;;;0.70;;
77204;SDS011;67992;46.618;18.850;2023-03-26T02:52:43;0.80;;;0.80;;
77204;SDS011;67992;46.618;18.850;2023-03-26T02:57:38;0.90;;;0.80;;
77204;SDS011;67992;46.618;18.850;2023-03-26T03:00:09;1.27;;;0.80;;
77204;SDS011;67992;46.618;18.850;2023-03-26T03:02:41;1.15;;;0.98;;
77204;SDS011;67992;46.618;18.850;2023-03-26T03:05:08;0.90;;;0.88;;
77204;SDS011;67992;46.618;18.850;2023-03-26T03:07:34;0.80;;;0.70;;
77204;SDS011;67992;46.618;18.850;2023-03-26T03:10:03;0.98;;;0.80;;
77204;SDS011;67992;46.618;18.850;2023-03-26T03:12:38;0.90;;;0.90;;
77204;SDS011;67992;46.618;18.850;2023-03-26T03:15:05;0.70;;;0.70;;
77204;SDS011;67992;46.618;18.850;2023-03-26T03:17:34;1.17;;;0.90;;
77204;SDS011;67992;46.618;18.850;2023-03-26T03:20:02;1.13;;;0.95;;
77204;SDS011;67992;46.618;18.850;2023-03-26T03:22:34;1.10;;;1.00;;
77204;SDS011;67992;46.618;18.850;2023-03-26T03:25:00;0.90;;;0.85;;
77204;SDS011;67992;46.618;18.850;2023-03-26T03:27:27;0.80;;;0.80;;
77204;SDS011;67992;46.618;18.850;2023-03-26T03:29:55;0.85;;;0.80;;
77204;SDS011;67992;46.618;18.850;2023-03-26T03:32:23;1.00;;;0.90;;
77204;SDS011;67992;46.618;18.850;2023-03-26T03:34:55;0.60;;;0.60;;
77204;SDS011;67992;46.618;18.850;2023-03-26T03:37:23;1.13;;;0.95;;
77204;SDS011;67992;46.618;18.850;2023-03-26T03:39:52;0.80;;;0.80;;
77204;SDS011;67992;46.618;18.850;2023-03-26T03:42:23;1.50;;;1.02;;
77204;SDS011;67992;46.618;18.850;2023-03-26T03:44:49;0.70;;;0.70;;
77204;SDS011;67992;46.618;18.850;2023-03-26T03:47:18;1.10;;;0.77;;
77204;SDS011;67992;46.618;18.850;2023-03-26T03:49:49;0.85;;;0.77;;
77204;SDS011;67992;46.618;18.850;2023-03-26T03:52:15;1.02;;;0.80;;
77204;SDS011;67992;46.618;18.850;2023-03-26T03:54:42;1.10;;;1.00;;
77204;SDS011;67992;46.618;18.850;2023-03-26T03:57:07;0.80;;;0.80;;
77204;SDS011;67992;46.618;18.850;2023-03-26T03:59:33;1.10;;;0.95;;
77204;SDS011;67992;46.618;18.850;2023-03-26T04:01:58;1.10;;;1.00;;
77204;SDS011;67992;46.618;18.850;2023-03-26T04:04:25;1.20;;;0.98;;
77204;SDS011;67992;46.618;18.850;2023-03-26T04:06:53;1.33;;;1.20;;
77204;SDS011;67992;46.618;18.850;2023-03-26T04:09:18;1.05;;;0.90;;
77204;SDS011;67992;46.618;18.850;2023-03-26T04:11:44;1.13;;;0.88;;
77204;SDS011;67992;46.618;18.850;2023-03-26T04:14:09;1.23;;;1.00;;
77204;SDS011;67992;46.618;18.850;2023-03-26T04:16:35;1.38;;;1.05;;
77204;SDS011;67992;46.618;18.850;2023-03-26T04:19:00;1.15;;;1.08;;
77204;SDS011;67992;46.618;18.850;2023-03-26T04:21:29;0.80;;;0.80;;
77204;SDS011;67992;46.618;18.850;2023-03-26T04:23:55;0.98;;;0.95;;
77204;SDS011;67992;46.618;18.850;2023-03-26T04:26:20;1.42;;;1.08;;
77204;SDS011;67992;46.618;18.850;2023-03-26T04:29:20;1.40;;;1.20;;
77204;SDS011;67992;46.618;18.850;2023-03-26T04:31:43;1.15;;;1.02;;
77204;SDS011;67992;46.618;18.850;2023-03-26T04:34:28;1.65;;;1.15;;
77204;SDS011;67992;46.618;18.850;2023-03-26T04:36:55;1.10;;;0.90;;
77204;SDS011;67992;46.618;18.850;2023-03-26T04:39:26;1.67;;;1.10;;
77204;SDS011;67992;46.618;18.850;2023-03-26T04:41:56;1.13;;;1.02;;
77204;SDS011;67992;46.618;18.850;2023-03-26T04:44:30;1.17;;;1.00;;
77204;SDS011;67992;46.618;18.850;2023-03-26T04:46:56;0.98;;;0.88;;
77204;SDS011;67992;46.618;18.850;2023-03-26T04:49:21;1.52;;;1.20;;
77204;SDS011;67992;46.618;18.850;2023-03-26T04:51:47;1.20;;;1.10;;
77204;SDS011;67992;46.618;18.850;2023-03-26T04:54:13;1.52;;;1.05;;
77204;SDS011;67992;46.618;18.850;2023-03-26T04:56:54;1.00;;;0.90;;
77204;SDS011;67992;46.618;18.850;2023-03-26T05:01:54;0.77;;;0.75;;
77204;SDS011;67992;46.618;18.850;2023-03-26T05:04:22;1.23;;;0.90;;
77204;SDS011;67992;46.618;18.850;2023-03-26T05:06:48;1.27;;;1.13;;
77204;SDS011;67992;46.618;18.850;2023-03-26T05:09:14;1.27;;;1.17;;
77204;SDS011;67992;46.618;18.850;2023-03-26T05:11:41;1.00;;;0.90;;
77204;SDS011;67992;46.618;18.850;2023-03-26T05:14:07;1.58;;;1.20;;
77204;SDS011;67992;46.618;18.850;2023-03-26T05:16:36;1.40;;;1.00;;
77204;SDS011;67992;46.618;18.850;2023-03-26T05:19:06;1.35;;;1.10;;
77204;SDS011;67992;46.618;18.850;2023-03-26T05:21:32;1.20;;;1.10;;
77204;SDS011;67992;46.618;18.850;2023-03-26T05:23:58;1.17;;;0.98;;
77204;SDS011;67992;46.618;18.850;2023-03-26T05:26:28;1.00;;;0.90;;
77204;SDS011;67992;46.618;18.850;2023-03-26T05:28:54;2.25;;;1.10;;
77204;SDS011;67992;46.618;18.850;2023-03-26T05:31:22;1.20;;;1.10;;
77204;SDS011;67992;46.618;18.850;2023-03-26T05:33:51;1.27;;;1.17;;
77204;SDS011;67992;46.618;18.850;2023-03-26T05:36:19;1.20;;;1.10;;
77204;SDS011;67992;46.618;18.850;2023-03-26T05:38:50;1.25;;;1.00;;
77204;SDS011;67992;46.618;18.850;2023-03-26T05:41:16;0.98;;;0.93;;
77204;SDS011;67992;46.618;18.850;2023-03-26T05:43:45;1.67;;;1.27;;
77204;SDS011;67992;46.618;18.850;2023-03-26T05:46:11;0.80;;;0.70;;
77204;SDS011;67992;46.618;18.850;2023-03-26T05:48:38;1.15;;;1.02;;
77204;SDS011;67992;46.618;18.850;2023-03-26T05:51:04;1.23;;;1.00;;
77204;SDS011;67992;46.618;18.850;2023-03-26T05:53:33;1.15;;;1.05;;
77204;SDS011;67992;46.618;18.850;2023-03-26T05:55:59;1.20;;;1.02;;
77204;SDS011;67992;46.618;18.850;2023-03-26T05:58:28;1.10;;;1.00;;
77204;SDS011;67992;46.618;18.850;2023-03-26T06:00:59;1.15;;;1.05;;
77204;SDS011;67992;46.618;18.850;2023-03-26T06:03:36;1.17;;;1.08;;
77204;SDS011;67992;46.618;18.850;2023-03-26T06:06:11;1.30;;;1.00;;
77204;SDS011;67992;46.618;18.850;2023-03-26T06:08:41;1.30;;;1.08;;
77204;SDS011;67992;46.618;18.850;2023-03-26T06:11:13;1.42;;;1.08;;
77204;SDS011;67992;46.618;18.850;2023-03-26T06:13:40;1.00;;;0.90;;
77204;SDS011;67992;46.618;18.850;2023-03-26T06:16:07;0.93;;;0.82;;
77204;SDS011;67992;46.618;18.850;2023-03-26T06:18:34;1.15;;;1.05;;
77204;SDS011;67992;46.618;18.850;2023-03-26T06:21:00;1.73;;;0.98;;
77204;SDS011;67992;46.618;18.850;2023-03-26T06:23:26;1.30;;;1.10;;
77204;SDS011;67992;46.618;18.850;2023-03-26T06:25:51;1.00;;;0.90;;
77204;SDS011;67992;46.618;18.850;2023-03-26T06:28:17;1.05;;;1.00;;
77204;SDS011;67992;46.618;18.850;2023-03-26T06:30:43;1.05;;;0.98;;
77204;SDS011;67992;46.618;18.850;2023-03-26T06:33:09;1.30;;;1.00;;
77204;SDS011;67992;46.618;18.850;2023-03-26T06:35:35;1.30;;;0.90;;
77204;SDS011;67992;46.618;18.850;2023-03-26T06:38:01;1.38;;;1.02;;
77204;SDS011;67992;46.618;18.850;2023-03-26T06:40:27;0.93;;;0.88;;
77204;SDS011;67992;46.618;18.850;2023-03-26T06:42:53;2.28;;;1.20;;
77204;SDS011;67992;46.618;18.850;2023-03-26T06:45:20;1.02;;;0.93;;
77204;SDS011;67992;46.618;18.850;2023-03-26T06:47:48;1.20;;;1.10;;
77204;SDS011;67992;46.618;18.850;2023-03-26T06:50:14;1.02;;;0.93;;
77204;SDS011;67992;46.618;18.850;2023-03-26T06:52:39;0.90;;;0.90;;
77204;SDS011;67992;46.618;18.850;2023-03-26T06:55:05;1.20;;;1.10;;
77204;SDS011;67992;46.618;18.850;2023-03-26T06:57:32;1.42;;;1.17;;
77204;SDS011;67992;46.618;18.850;2023-03-26T07:00:04;0.90;;;0.90;;
77204;SDS011;67992;46.618;18.850;2023-03-26T07:02:30;0.80;;;0.60;;
77204;SDS011;67992;46.618;18.850;2023-03-26T07:04:59;1.23;;;1.00;;
77204;SDS011;67992;46.618;18.850;2023-03-26T07:07:25;1.15;;;0.75;;
77204;SDS011;67992;46.618;18.850;2023-03-26T07:09:51;1.27;;;1.02;;
77204;SDS011;67992;46.618;18.850;2023-03-26T07:12:19;1.15;;;0.95;;
77204;SDS011;67992;46.618;18.850;2023-03-26T07:14:44;1.45;;;0.80;;
77204;SDS011;67992;46.618;18.850;2023-03-26T07:17:10;1.40;;;1.08;;
77204;SDS011;67992;46.618;18.850;2023-03-26T07:19:36;1.20;;;1.10;;
77204;SDS011;67992;46.618;18.850;2023-03-26T07:22:04;0.85;;;0.82;;
77204;SDS011;67992;46.618;18.850;2023-03-26T07:24:30;1.10;;;0.93;;
77204;SDS011;67992;46.618;18.850;2023-03-26T07:29:40;1.17;;;1.08;;
77204;SDS011;67992;46.618;18.850;2023-03-26T07:45:54;1.05;;;0.93;;
77204;SDS011;67992;46.618;18.850;2023-03-26T07:48:26;1.10;;;1.00;;
77204;SDS011;67992;46.618;18.850;2023-03-26T07:50:55;1.52;;;0.80;;
77204;SDS011;67992;46.618;18.850;2023-03-26T07:53:21;1.00;;;0.82;;
77204;SDS011;67992;46.618;18.850;2023-03-26T07:55:49;0.80;;;0.77;;
77204;SDS011;67992;46.618;18.850;2023-03-26T08:01:07;1.60;;;1.20;;
77204;SDS011;67992;46.618;18.850;2023-03-26T08:06:43;1.38;;;1.02;;
77204;SDS011;67992;46.618;18.850;2023-03-26T08:12:07;1.20;;;1.00;;
77204;SDS011;67992;46.618;18.850;2023-03-26T08:22:44;1.27;;;1.00;;
77204;SDS011;67992;46.618;18.850;2023-03-26T08:31:08;1.33;;;1.15;;
77204;SDS011;67992;46.618;18.850;2023-03-26T08:33:39;1.60;;;1.30;;
77204;SDS011;67992;46.618;18.850;2023-03-26T08:36:05;1.08;;;0.90;;
77204;SDS011;67992;46.618;18.850;2023-03-26T08:38:35;1.17;;;0.93;;
77204;SDS011;67992;46.618;18.850;2023-03-26T08:55:51;1.02;;;0.80;;
77204;SDS011;67992;46.618;18.850;2023-03-26T09:04:36;1.48;;;1.08;;
77204;SDS011;67992;46.618;18.850;2023-03-26T09:10:21;1.83;;;1.00;;
77204;SDS011;67992;46.618;18.850;2023-03-26T09:26:43;1.10;;;0.93;;
77204;SDS011;67992;46.618;18.850;2023-03-26T09:35:12;0.60;;;0.60;;
77204;SDS011;67992;46.618;18.850;2023-03-26T09:38:21;0.90;;;0.88;;
77204;SDS011;67992;46.618;18.850;2023-03-26T09:46:54;0.80;;;0.80;;
77204;SDS011;67992;46.618;18.850;2023-03-26T09:55:15;1.42;;;0.80;;
77204;SDS011;67992;46.618;18.850;2023-03-26T10:03:44;0.85;;;0.60;;
77204;SDS011;67992;46.618;18.850;2023-03-26T10:06:26;0.93;;;0.80;;
77204;SDS011;67992;46.618;18.850;2023-03-26T10:14:59;0.73;;;0.73;;
77204;SDS011;67992;46.618;18.850;2023-03-26T10:31:07;0.85;;;0.75;;
77204;SDS011;67992;46.618;18.850;2023-03-26T10:42:32;0.70;;;0.70;;
77204;SDS011;67992;46.618;18.850;2023-03-26T10:53:36;0.55;;;0.47;;
77204;SDS011;67992;46.618;18.850;2023-03-26T10:56:13;0.28;;;0.28;;
77204;SDS011;67992;46.618;18.850;2023-03-26T10:58:50;0.50;;;0.50;;
77204;SDS011;67992;46.618;18.850;2023-03-26T11:01:21;0.73;;;0.65;;
77204;SDS011;67992;46.618;18.850;2023-03-26T11:04:19;0.88;;;0.50;;
77204;SDS011;67992;46.618;18.850;2023-03-26T11:07:10;0.57;;;0.57;;
77204;SDS011;67992;46.618;18.850;2023-03-26T11:12:52;0.60;;;0.50;;
77204;SDS011;67992;46.618;18.850;2023-03-26T11:18:07;0.40;;;0.40;;
77204;SDS011;67992;46.618;18.850;2023-03-26T11:23:42;0.45;;;0.45;;
77204;SDS011;67992;46.618;18.850;2023-03-26T11:26:32;0.25;;;0.25;;
77204;SDS011;67992;46.618;18.850;2023-03-26T11:29:19;0.45;;;0.40;;
77204;SDS011;67992;46.618;18.850;2023-03-26T11:32:14;0.30;;;0.30;;
77204;SDS011;67992;46.618;18.850;2023-03-26T11:37:34;0.50;;;0.50;;
77204;SDS011;67992;46.618;18.850;2023-03-26T11:40:15;0.52;;;0.50;;
77204;SDS011;67992;46.618;18.850;2023-03-26T11:42:49;1.00;;;0.43;;
77204;SDS011;67992;46.618;18.850;2023-03-26T11:45:24;0.52;;;0.43;;
77204;SDS011;67992;46.618;18.850;2023-03-26T11:48:02;0.60;;;0.57;;
77204;SDS011;67992;46.618;18.850;2023-03-26T11:50:35;0.45;;;0.45;;
77204;SDS011;67992;46.618;18.850;2023-03-26T11:53:21;0.45;;;0.45;;
77204;SDS011;67992;46.618;18.850;2023-03-26T11:55:58;0.40;;;0.30;;
77204;SDS011;67992;46.618;18.850;2023-03-26T12:01:46;0.60;;;0.52;;
77204;SDS011;67992;46.618;18.850;2023-03-26T12:07:05;1.58;;;0.43;;
77204;SDS011;67992;46.618;18.850;2023-03-26T12:12:16;0.77;;;0.60;;
77204;SDS011;67992;46.618;18.850;2023-03-26T12:14:45;0.30;;;0.30;;
77204;SDS011;67992;46.618;18.850;2023-03-26T12:19:41;0.43;;;0.43;;
77204;SDS011;67992;46.618;18.850;2023-03-26T12:25:16;0.38;;;0.38;;
77204;SDS011;67992;46.618;18.850;2023-03-26T12:34:28;0.20;;;0.20;;
77204;SDS011;67992;46.618;18.850;2023-03-26T12:36:38;1.08;;;0.30;;
77204;SDS011;67992;46.618;18.850;2023-03-26T12:39:31;0.30;;;0.30;;
77204;SDS011;67992;46.618;18.850;2023-03-26T12:41:55;0.70;;;0.45;;
77204;SDS011;67992;46.618;18.850;2023-03-26T12:47:32;0.68;;;0.45;;
77204;SDS011;67992;46.618;18.850;2023-03-26T12:49:58;0.70;;;0.60;;
77204;SDS011;67992;46.618;18.850;2023-03-26T12:57:41;0.30;;;0.30;;
77204;SDS011;67992;46.618;18.850;2023-03-26T13:00:48;1.55;;;0.50;;
77204;SDS011;67992;46.618;18.850;2023-03-26T13:06:11;0.60;;;0.50;;
77204;SDS011;67992;46.618;18.850;2023-03-26T13:17:08;0.20;;;0.20;;
77204;SDS011;67992;46.618;18.850;2023-03-26T13:31:14;0.20;;;0.17;;
77204;SDS011;67992;46.618;18.850;2023-03-26T13:39:00;0.43;;;0.43;;
77204;SDS011;67992;46.618;18.850;2023-03-26T13:44:13;0.60;;;0.45;;
77204;SDS011;67992;46.618;18.850;2023-03-26T13:49:43;5.60;;;0.93;;
77204;SDS011;67992;46.618;18.850;2023-03-26T13:54:49;2.50;;;1.02;;
77204;SDS011;67992;46.618;18.850;2023-03-26T13:57:26;0.50;;;0.38;;
77204;SDS011;67992;46.618;18.850;2023-03-26T14:00:03;1.08;;;0.40;;
77204;SDS011;67992;46.618;18.850;2023-03-26T14:02:41;5.30;;;1.33;;
77204;SDS011;67992;46.618;18.850;2023-03-26T14:05:22;2.15;;;0.98;;
77204;SDS011;67992;46.618;18.850;2023-03-26T14:07:54;1.80;;;0.55;;
77204;SDS011;67992;46.618;18.850;2023-03-26T14:10:31;1.13;;;0.80;;
77204;SDS011;67992;46.618;18.850;2023-03-26T14:13:08;0.47;;;0.47;;
77204;SDS011;67992;46.618;18.850;2023-03-26T14:18:33;1.30;;;0.90;;
77204;SDS011;67992;46.618;18.850;2023-03-26T14:22:01;9.27;;;2.80;;
77204;SDS011;67992;46.618;18.850;2023-03-26T14:24:28;7.07;;;2.30;;
77204;SDS011;67992;46.618;18.850;2023-03-26T14:37:56;2.03;;;0.85;;
77204;SDS011;67992;46.618;18.850;2023-03-26T14:54:22;1.90;;;1.13;;
77204;SDS011;67992;46.618;18.850;2023-03-26T15:08:04;5.38;;;1.48;;
77204;SDS011;67992;46.618;18.850;2023-03-26T15:19:51;4.57;;;1.35;;
77204;SDS011;67992;46.618;18.850;2023-03-26T15:43:01;2.22;;;1.20;;
77204;SDS011;67992;46.618;18.850;2023-03-26T15:45:41;3.13;;;1.17;;
77204;SDS011;67992;46.618;18.850;2023-03-26T15:48:20;5.07;;;1.30;;
77204;SDS011;67992;46.618;18.850;2023-03-26T15:51:20;4.47;;;1.30;;
77204;SDS011;67992;46.618;18.850;2023-03-26T15:59:57;2.83;;;1.10;;
77204;SDS011;67992;46.618;18.850;2023-03-26T16:08:32;8.07;;;3.60;;
77204;SDS011;67992;46.618;18.850;2023-03-26T16:16:56;2.03;;;1.55;;
77204;SDS011;67992;46.618;18.850;2023-03-26T16:22:34;7.45;;;1.80;;
77204;SDS011;67992;46.618;18.850;2023-03-26T16:25:20;2.20;;;1.50;;
77204;SDS011;67992;46.618;18.850;2023-03-26T16:30:37;2.85;;;1.45;;
77204;SDS011;67992;46.618;18.850;2023-03-26T16:33:17;3.35;;;1.52;;
77204;SDS011;67992;46.618;18.850;2023-03-26T16:41:25;1.90;;;1.40;;
77204;SDS011;67992;46.618;18.850;2023-03-26T16:46:35;3.70;;;1.70;;
77204;SDS011;67992;46.618;18.850;2023-03-26T16:49:21;3.88;;;1.58;;
77204;SDS011;67992;46.618;18.850;2023-03-26T16:52:08;3.38;;;1.65;;
77204;SDS011;67992;46.618;18.850;2023-03-26T16:57:33;2.28;;;1.77;;
77204;SDS011;67992;46.618;18.850;2023-03-26T17:03:03;2.10;;;1.45;;
77204;SDS011;67992;46.618;18.850;2023-03-26T17:16:36;3.05;;;1.60;;
77204;SDS011;67992;46.618;18.850;2023-03-26T17:19:17;1.50;;;1.27;;
77204;SDS011;67992;46.618;18.850;2023-03-26T17:22:09;1.50;;;1.27;;
77204;SDS011;67992;46.618;18.850;2023-03-26T17:28:32;1.30;;;1.20;;
77204;SDS011;67992;46.618;18.850;2023-03-26T17:31:50;2.10;;;1.27;;
77204;SDS011;67992;46.618;18.850;2023-03-26T17:37:03;2.22;;;1.30;;
77204;SDS011;67992;46.618;18.850;2023-03-26T17:42:29;1.83;;;1.35;;
77204;SDS011;67992;46.618;18.850;2023-03-26T17:44:57;2.05;;;1.50;;
77204;SDS011;67992;46.618;18.850;2023-03-26T17:47:38;1.50;;;1.25;;
77204;SDS011;67992;46.618;18.850;2023-03-26T17:52:44;2.65;;;1.40;;
77204;SDS011;67992;46.618;18.850;2023-03-26T17:55:32;1.90;;;1.60;;
77204;SDS011;67992;46.618;18.850;2023-03-26T17:58:03;1.90;;;1.40;;
77204;SDS011;67992;46.618;18.850;2023-03-26T18:00:38;1.63;;;1.23;;
77204;SDS011;67992;46.618;18.850;2023-03-26T18:03:11;2.10;;;1.40;;
77204;SDS011;67992;46.618;18.850;2023-03-26T18:05:48;1.63;;;1.30;;
77204;SDS011;67992;46.618;18.850;2023-03-26T18:19:18;2.10;;;1.67;;
77204;SDS011;67992;46.618;18.850;2023-03-26T18:24:29;1.80;;;1.48;;
77204;SDS011;67992;46.618;18.850;2023-03-26T18:27:40;2.15;;;1.50;;
77204;SDS011;67992;46.618;18.850;2023-03-26T18:30:01;2.90;;;1.50;;
77204;SDS011;67992;46.618;18.850;2023-03-26T18:33:23;2.65;;;1.30;;
77204;SDS011;67992;46.618;18.850;2023-03-26T18:35:25;2.00;;;1.50;;
77204;SDS011;67992;46.618;18.850;2023-03-26T18:38:01;1.98;;;1.50;;
77204;SDS011;67992;46.618;18.850;2023-03-26T18:40:38;2.40;;;1.80;;
77204;SDS011;67992;46.618;18.850;2023-03-26T18:43:26;2.30;;;1.73;;
77204;SDS011;67992;46.618;18.850;2023-03-26T18:45:51;2.58;;;1.65;;
77204;SDS011;67992;46.618;18.850;2023-03-26T18:48:20;2.55;;;1.80;;
77204;SDS011;67992;46.618;18.850;2023-03-26T18:51:00;2.90;;;1.92;;
77204;SDS011;67992;46.618;18.850;2023-03-26T18:53:30;1.58;;;1.30;;
77204;SDS011;67992;46.618;18.850;2023-03-26T18:56:03;1.63;;;1.30;;
77204;SDS011;67992;46.618;18.850;2023-03-26T18:58:45;1.50;;;1.40;;
77204;SDS011;67992;46.618;18.850;2023-03-26T19:01:15;1.95;;;1.40;;
77204;SDS011;67992;46.618;18.850;2023-03-26T19:03:41;1.67;;;1.23;;
77204;SDS011;67992;46.618;18.850;2023-03-26T19:06:11;3.03;;;1.67;;
77204;SDS011;67992;46.618;18.850;2023-03-26T19:08:39;1.67;;;1.30;;
77204;SDS011;67992;46.618;18.850;2023-03-26T19:11:08;2.17;;;1.38;;
77204;SDS011;67992;46.618;18.850;2023-03-26T19:13:36;2.05;;;1.30;;
77204;SDS011;67992;46.618;18.850;2023-03-26T19:16:18;2.40;;;1.50;;
77204;SDS011;67992;46.618;18.850;2023-03-26T19:18:49;2.08;;;1.50;;
77204;SDS011;67992;46.618;18.850;2023-03-26T19:21:15;1.77;;;1.38;;
77204;SDS011;67992;46.618;18.850;2023-03-26T19:23:43;1.60;;;1.38;;
77204;SDS011;67992;46.618;18.850;2023-03-26T19:26:11;1.48;;;1.30;;
77204;SDS011;67992;46.618;18.850;2023-03-26T19:28:42;1.52;;;1.33;;
77204;SDS011;67992;46.618;18.850;2023-03-26T19:33:41;1.55;;;1.23;;
77204;SDS011;67992;46.618;18.850;2023-03-26T19:39:24;1.70;;;1.30;;
77204;SDS011;67992;46.618;18.850;2023-03-26T19:41:38;1.70;;;1.30;;
77204;SDS011;67992;46.618;18.850;2023-03-26T19:46:46;1.77;;;1.30;;
77204;SDS011;67992;46.618;18.850;2023-03-26T19:49:27;1.85;;;1.33;;
77204;SDS011;67992;46.618;18.850;2023-03-26T19:52:03;1.50;;;1.25;;
77204;SDS011;67992;46.618;18.850;2023-03-26T19:54:59;1.60;;;1.35;;
77204;SDS011;67992;46.618;18.850;2023-03-26T19:57:28;1.58;;;1.30;;
77204;SDS011;67992;46.618;18.850;2023-03-26T19:59:56;2.25;;;1.10;;
77204;SDS011;67992;46.618;18.850;2023-03-26T20:02:24;1.38;;;1.23;;
77204;SDS011;67992;46.618;18.850;2023-03-26T20:04:50;1.27;;;1.10;;
77204;SDS011;67992;46.618;18.850;2023-03-26T20:07:18;1.15;;;1.05;;
77204;SDS011;67992;46.618;18.850;2023-03-26T20:09:53;1.35;;;1.20;;
77204;SDS011;67992;46.618;18.850;2023-03-26T20:12:20;1.55;;;1.20;;
77204;SDS011;67992;46.618;18.850;2023-03-26T20:14:47;1.48;;;1.10;;
77204;SDS011;67992;46.618;18.850;2023-03-26T20:17:14;2.05;;;1.33;;
77204;SDS011;67992;46.618;18.850;2023-03-26T20:19:43;1.30;;;1.00;;
77204;SDS011;67992;46.618;18.850;2023-03-26T20:22:15;1.10;;;1.00;;
77204;SDS011;67992;46.618;18.850;2023-03-26T20:24:44;1.80;;;1.10;;
77204;SDS011;67992;46.618;18.850;2023-03-26T20:27:10;1.23;;;0.98;;
77204;SDS011;67992;46.618;18.850;2023-03-26T20:29:40;1.20;;;1.10;;
77204;SDS011;67992;46.618;18.850;2023-03-26T20:32:24;1.15;;;1.00;;
77204;SDS011;67992;46.618;18.850;2023-03-26T20:34:51;1.30;;;1.20;;
77204;SDS011;67992;46.618;18.850;2023-03-26T20:37:16;1.15;;;0.93;;
77204;SDS011;67992;46.618;18.850;2023-03-26T20:39:42;1.10;;;1.00;;
77204;SDS011;67992;46.618;18.850;2023-03-26T20:42:09;1.42;;;1.20;;
77204;SDS011;67992;46.618;18.850;2023-03-26T20:44:37;1.13;;;0.90;;
77204;SDS011;67992;46.618;18.850;2023-03-26T20:47:03;0.98;;;0.88;;
77204;SDS011;67992;46.618;18.850;2023-03-26T20:49:29;1.00;;;0.93;;
77204;SDS011;67992;46.618;18.850;2023-03-26T20:51:56;1.52;;;1.33;;
77204;SDS011;67992;46.618;18.850;2023-03-26T20:54:24;1.10;;;1.00;;
77204;SDS011;67992;46.618;18.850;2023-03-26T20:56:51;1.27;;;1.00;;
77204;SDS011;67992;46.618;18.850;2023-03-26T20:59:22;1.02;;;0.93;;
77204;SDS011;67992;46.618;18.850;2023-03-26T21:01:53;1.83;;;1.10;;
77204;SDS011;67992;46.618;18.850;2023-03-26T21:04:20;1.30;;;1.05;;
77204;SDS011;67992;46.618;18.850;2023-03-26T21:06:46;1.20;;;1.00;;
77204;SDS011;67992;46.618;18.850;2023-03-26T21:09:14;1.20;;;0.93;;
77204;SDS011;67992;46.618;18.850;2023-03-26T21:14:32;1.50;;;1.05;;
77204;SDS011;67992;46.618;18.850;2023-03-26T21:17:05;0.70;;;0.70;;
77204;SDS011;67992;46.618;18.850;2023-03-26T21:19:40;1.27;;;0.90;;
77204;SDS011;67992;46.618;18.850;2023-03-26T21:27:50;0.75;;;0.70;;
77204;SDS011;67992;46.618;18.850;2023-03-26T21:30:19;2.03;;;1.20;;
77204;SDS011;67992;46.618;18.850;2023-03-26T21:32:46;1.17;;;0.93;;
77204;SDS011;67992;46.618;18.850;2023-03-26T21:35:12;1.75;;;1.00;;
77204;SDS011;67992;46.618;18.850;2023-03-26T21:37:40;0.80;;;0.80;;
77204;SDS011;67992;46.618;18.850;2023-03-26T21:40:09;0.73;;;0.70;;
77204;SDS011;67992;46.618;18.850;2023-03-26T21:42:42;1.30;;;1.00;;
77204;SDS011;67992;46.618;18.850;2023-03-26T21:45:09;0.75;;;0.75;;
77204;SDS011;67992;46.618;18.850;2023-03-26T21:47:36;0.80;;;0.80;;
77204;SDS011;67992;46.618;18.850;2023-03-26T21:50:03;1.08;;;0.80;;
77204;SDS011;67992;46.618;18.850;2023-03-26T21:52:30;0.70;;;0.70;;